sensor_id;sensor_type;location;lat;lon;timestamp;temperature;humidity
22436;DHT22;11385;50.822;4.324;2023-02-19T00:01:29;10.80;99.90
22436;DHT22;11385;50.822;4.324;2023-02-19T00:03:59;10.70;99.90
22436;DHT22;11385;50.822;4.324;2023-02-19T00:06:28;10.70;99.90
22436;DHT22;11385;50.822;4.324;2023-02-19T00:08:56;10.80;99.90
22436;DHT22;11385;50.822;4.324;2023-02-19T00:11:25;10.80;99.90
22436;DHT22;11385;50.822;4.324;2023-02-19T00:13:53;10.80;99.90
22436;DHT22;11385;50.822;4.324;2023-02-19T00:16:23;10.90;99.90
22436;DHT22;11385;50.822;4.324;2023-02-19T00:18:52;10.90;99.90
22436;DHT22;11385;50.822;4.324;2023-02-19T00:21:19;10.90;99.90
22436;DHT22;11385;50.822;4.324;2023-02-19T00:23:53;10.90;99.90
22436;DHT22;11385;50.822;4.324;2023-02-19T00:26:21;10.90;99.90
22436;DHT22;11385;50.822;4.324;2023-02-19T00:28:50;11.10;99.90
22436;DHT22;11385;50.822;4.324;2023-02-19T00:31:22;11.10;99.90
22436;DHT22;11385;50.822;4.324;2023-02-19T00:33:53;11.00;99.90
22436;DHT22;11385;50.822;4.324;2023-02-19T00:36:20;10.90;99.90
22436;DHT22;11385;50.822;4.324;2023-02-19T00:38:50;10.90;99.90
22436;DHT22;11385;50.822;4.324;2023-02-19T00:41:19;10.90;99.90
22436;DHT22;11385;50.822;4.324;2023-02-19T00:44:04;10.90;99.90
22436;DHT22;11385;50.822;4.324;2023-02-19T00:46:37;10.90;99.90
22436;DHT22;11385;50.822;4.324;2023-02-19T00:49:05;10.90;99.90
22436;DHT22;11385;50.822;4.324;2023-02-19T00:51:35;10.90;99.90
22436;DHT22;11385;50.822;4.324;2023-02-19T00:54:03;10.90;99.90
22436;DHT22;11385;50.822;4.324;2023-02-19T00:56:30;10.80;99.90
22436;DHT22;11385;50.822;4.324;2023-02-19T00:58:57;10.90;99.90
22436;DHT22;11385;50.822;4.324;2023-02-19T01:01:24;10.80;99.90
22436;DHT22;11385;50.822;4.324;2023-02-19T01:03:50;10.80;99.90
22436;DHT22;11385;50.822;4.324;2023-02-19T01:06:19;10.80;99.90
22436;DHT22;11385;50.822;4.324;2023-02-19T01:08:46;10.80;99.90
22436;DHT22;11385;50.822;4.324;2023-02-19T01:11:13;10.80;99.90
22436;DHT22;11385;50.822;4.324;2023-02-19T01:13:40;10.90;99.90
22436;DHT22;11385;50.822;4.324;2023-02-19T01:16:11;10.90;99.90
22436;DHT22;11385;50.822;4.324;2023-02-19T01:18:38;11.00;99.90
22436;DHT22;11385;50.822;4.324;2023-02-19T01:21:08;11.00;99.90
22436;DHT22;11385;50.822;4.324;2023-02-19T01:23:36;11.00;99.90
22436;DHT22;11385;50.822;4.324;2023-02-19T01:26:06;11.00;99.90
22436;DHT22;11385;50.822;4.324;2023-02-19T01:28:34;10.90;99.90
22436;DHT22;11385;50.822;4.324;2023-02-19T01:31:04;10.90;99.90
22436;DHT22;11385;50.822;4.324;2023-02-19T01:33:32;10.90;99.90
22436;DHT22;11385;50.822;4.324;2023-02-19T01:35:59;10.90;99.90
22436;DHT22;11385;50.822;4.324;2023-02-19T01:38:25;11.00;99.90
22436;DHT22;11385;50.822;4.324;2023-02-19T01:40:55;11.00;99.90
22436;DHT22;11385;50.822;4.324;2023-02-19T01:43:22;10.90;99.90
22436;DHT22;11385;50.822;4.324;2023-02-19T01:45:49;10.90;99.90
22436;DHT22;11385;50.822;4.324;2023-02-19T01:48:19;10.90;99.90
22436;DHT22;11385;50.822;4.324;2023-02-19T01:50:51;10.90;99.90
22436;DHT22;11385;50.822;4.324;2023-02-19T01:53:19;11.00;99.90
22436;DHT22;11385;50.822;4.324;2023-02-19T01:55:47;10.90;99.90
22436;DHT22;11385;50.822;4.324;2023-02-19T01:58:15;10.90;99.90
22436;DHT22;11385;50.822;4.324;2023-02-19T02:00:42;10.90;99.90
22436;DHT22;11385;50.822;4.324;2023-02-19T02:03:09;10.80;99.90
22436;DHT22;11385;50.822;4.324;2023-02-19T02:05:43;10.70;99.90
22436;DHT22;11385;50.822;4.324;2023-02-19T02:08:12;10.70;99.90
22436;DHT22;11385;50.822;4.324;2023-02-19T02:10:45;10.70;99.90
22436;DHT22;11385;50.822;4.324;2023-02-19T02:13:12;10.70;99.90
22436;DHT22;11385;50.822;4.324;2023-02-19T02:15:44;10.70;99.90
22436;DHT22;11385;50.822;4.324;2023-02-19T02:18:23;10.80;99.90
22436;DHT22;11385;50.822;4.324;2023-02-19T02:21:00;10.70;99.90
22436;DHT22;11385;50.822;4.324;2023-02-19T02:26:16;10.80;99.90
22436;DHT22;11385;50.822;4.324;2023-02-19T02:31:34;10.70;99.90
22436;DHT22;11385;50.822;4.324;2023-02-19T02:34:08;10.60;99.90
22436;DHT22;11385;50.822;4.324;2023-02-19T02:36:37;10.60;99.90
22436;DHT22;11385;50.822;4.324;2023-02-19T02:39:07;10.60;99.90
22436;DHT22;11385;50.822;4.324;2023-02-19T02:41:41;10.70;99.90
22436;DHT22;11385;50.822;4.324;2023-02-19T02:44:09;10.70;99.90
22436;DHT22;11385;50.822;4.324;2023-02-19T02:46:39;10.60;99.90
22436;DHT22;11385;50.822;4.324;2023-02-19T02:49:10;10.60;99.90
22436;DHT22;11385;50.822;4.324;2023-02-19T02:51:42;10.60;99.90
22436;DHT22;11385;50.822;4.324;2023-02-19T02:54:15;10.50;99.90
22436;DHT22;11385;50.822;4.324;2023-02-19T02:56:49;10.70;99.90
22436;DHT22;11385;50.822;4.324;2023-02-19T02:59:21;10.70;99.90
22436;DHT22;11385;50.822;4.324;2023-02-19T03:02:03;10.70;99.90
22436;DHT22;11385;50.822;4.324;2023-02-19T03:04:52;10.70;99.90
22436;DHT22;11385;50.822;4.324;2023-02-19T03:07:28;10.70;99.90
22436;DHT22;11385;50.822;4.324;2023-02-19T03:09:57;10.70;99.90
22436;DHT22;11385;50.822;4.324;2023-02-19T03:12:26;10.80;99.90
22436;DHT22;11385;50.822;4.324;2023-02-19T03:15:04;10.70;99.90
22436;DHT22;11385;50.822;4.324;2023-02-19T03:17:41;10.70;99.90
22436;DHT22;11385;50.822;4.324;2023-02-19T03:20:16;10.70;99.90
22436;DHT22;11385;50.822;4.324;2023-02-19T03:22:45;10.70;99.90
22436;DHT22;11385;50.822;4.324;2023-02-19T03:25:19;10.80;99.90
22436;DHT22;11385;50.822;4.324;2023-02-19T03:27:54;10.70;99.90
22436;DHT22;11385;50.822;4.324;2023-02-19T03:30:29;10.60;99.90
22436;DHT22;11385;50.822;4.324;2023-02-19T03:32:58;10.60;99.90
22436;DHT22;11385;50.822;4.324;2023-02-19T03:35:30;10.60;99.90
22436;DHT22;11385;50.822;4.324;2023-02-19T03:38:03;10.60;99.90
22436;DHT22;11385;50.822;4.324;2023-02-19T03:40:34;10.60;99.90
22436;DHT22;11385;50.822;4.324;2023-02-19T03:43:25;10.70;99.90
22436;DHT22;11385;50.822;4.324;2023-02-19T03:45:57;10.70;99.90
22436;DHT22;11385;50.822;4.324;2023-02-19T03:48:32;10.70;99.90
22436;DHT22;11385;50.822;4.324;2023-02-19T03:51:07;10.70;99.90
22436;DHT22;11385;50.822;4.324;2023-02-19T03:53:52;10.70;99.90
22436;DHT22;11385;50.822;4.324;2023-02-19T03:56:28;10.60;99.90
22436;DHT22;11385;50.822;4.324;2023-02-19T03:59:04;10.60;99.90
22436;DHT22;11385;50.822;4.324;2023-02-19T04:01:38;10.60;99.90
22436;DHT22;11385;50.822;4.324;2023-02-19T04:04:37;10.70;99.90
22436;DHT22;11385;50.822;4.324;2023-02-19T04:07:04;10.70;99.90
22436;DHT22;11385;50.822;4.324;2023-02-19T04:09:35;10.60;99.90
22436;DHT22;11385;50.822;4.324;2023-02-19T04:12:05;10.60;99.90
22436;DHT22;11385;50.822;4.324;2023-02-19T04:14:51;10.60;99.90
22436;DHT22;11385;50.822;4.324;2023-02-19T04:17:23;10.60;99.90
22436;DHT22;11385;50.822;4.324;2023-02-19T04:19:52;10.60;99.90
22436;DHT22;11385;50.822;4.324;2023-02-19T04:22:21;10.60;99.90
22436;DHT22;11385;50.822;4.324;2023-02-19T04:24:50;10.60;99.90
22436;DHT22;11385;50.822;4.324;2023-02-19T04:27:18;10.60;99.90
22436;DHT22;11385;50.822;4.324;2023-02-19T04:29:45;10.80;99.90
22436;DHT22;11385;50.822;4.324;2023-02-19T04:32:12;10.70;99.90
22436;DHT22;11385;50.822;4.324;2023-02-19T04:34:39;10.70;99.90
22436;DHT22;11385;50.822;4.324;2023-02-19T04:37:06;10.70;99.90
22436;DHT22;11385;50.822;4.324;2023-02-19T04:39:33;10.70;99.90
22436;DHT22;11385;50.822;4.324;2023-02-19T04:41:59;10.80;99.90
22436;DHT22;11385;50.822;4.324;2023-02-19T04:44:26;10.80;99.90
22436;DHT22;11385;50.822;4.324;2023-02-19T04:46:53;10.60;99.90
22436;DHT22;11385;50.822;4.324;2023-02-19T04:49:20;10.60;99.90
22436;DHT22;11385;50.822;4.324;2023-02-19T04:51:47;10.50;99.90
22436;DHT22;11385;50.822;4.324;2023-02-19T04:54:14;10.60;99.90
22436;DHT22;11385;50.822;4.324;2023-02-19T04:56:40;10.50;99.90
22436;DHT22;11385;50.822;4.324;2023-02-19T04:59:07;10.40;99.90
22436;DHT22;11385;50.822;4.324;2023-02-19T05:01:33;10.40;99.90
22436;DHT22;11385;50.822;4.324;2023-02-19T05:04:00;10.40;99.90
22436;DHT22;11385;50.822;4.324;2023-02-19T05:06:27;10.50;99.90
22436;DHT22;11385;50.822;4.324;2023-02-19T05:08:53;10.50;99.90
22436;DHT22;11385;50.822;4.324;2023-02-19T05:11:20;10.50;99.90
22436;DHT22;11385;50.822;4.324;2023-02-19T05:13:48;10.60;99.90
22436;DHT22;11385;50.822;4.324;2023-02-19T05:16:15;10.50;99.90
22436;DHT22;11385;50.822;4.324;2023-02-19T05:18:43;10.50;99.90
22436;DHT22;11385;50.822;4.324;2023-02-19T05:21:11;10.50;99.90
22436;DHT22;11385;50.822;4.324;2023-02-19T05:23:38;10.60;99.90
22436;DHT22;11385;50.822;4.324;2023-02-19T05:26:07;10.60;99.90
22436;DHT22;11385;50.822;4.324;2023-02-19T05:28:34;10.60;99.90
22436;DHT22;11385;50.822;4.324;2023-02-19T05:36:29;10.50;99.90
22436;DHT22;11385;50.822;4.324;2023-02-19T05:38:56;10.30;99.90
22436;DHT22;11385;50.822;4.324;2023-02-19T05:41:25;10.40;99.90
22436;DHT22;11385;50.822;4.324;2023-02-19T05:43:53;10.30;99.90
22436;DHT22;11385;50.822;4.324;2023-02-19T05:46:22;10.40;99.90
22436;DHT22;11385;50.822;4.324;2023-02-19T05:48:50;10.40;99.90
22436;DHT22;11385;50.822;4.324;2023-02-19T05:51:19;10.50;99.90
22436;DHT22;11385;50.822;4.324;2023-02-19T05:53:47;10.50;99.90
22436;DHT22;11385;50.822;4.324;2023-02-19T05:56:33;10.50;99.90
22436;DHT22;11385;50.822;4.324;2023-02-19T05:59:03;10.50;99.90
22436;DHT22;11385;50.822;4.324;2023-02-19T06:01:31;10.40;99.90
22436;DHT22;11385;50.822;4.324;2023-02-19T06:03:58;10.30;99.90
22436;DHT22;11385;50.822;4.324;2023-02-19T06:06:26;10.30;99.90
22436;DHT22;11385;50.822;4.324;2023-02-19T06:08:53;10.30;99.90
22436;DHT22;11385;50.822;4.324;2023-02-19T06:11:20;10.40;99.90
22436;DHT22;11385;50.822;4.324;2023-02-19T06:13:47;10.30;99.90
22436;DHT22;11385;50.822;4.324;2023-02-19T06:16:16;10.40;99.90
22436;DHT22;11385;50.822;4.324;2023-02-19T06:18:43;10.40;99.90
22436;DHT22;11385;50.822;4.324;2023-02-19T06:21:11;10.30;99.90
22436;DHT22;11385;50.822;4.324;2023-02-19T06:23:38;10.40;99.90
22436;DHT22;11385;50.822;4.324;2023-02-19T06:26:07;10.50;99.90
22436;DHT22;11385;50.822;4.324;2023-02-19T06:28:35;10.50;99.90
22436;DHT22;11385;50.822;4.324;2023-02-19T06:31:03;10.50;99.90
22436;DHT22;11385;50.822;4.324;2023-02-19T06:33:30;10.40;99.90
22436;DHT22;11385;50.822;4.324;2023-02-19T06:35:58;10.50;99.90
22436;DHT22;11385;50.822;4.324;2023-02-19T06:38:25;10.50;99.90
22436;DHT22;11385;50.822;4.324;2023-02-19T06:40:52;10.60;99.90
22436;DHT22;11385;50.822;4.324;2023-02-19T06:43:19;10.40;99.90
22436;DHT22;11385;50.822;4.324;2023-02-19T06:45:45;10.50;99.90
22436;DHT22;11385;50.822;4.324;2023-02-19T06:48:12;10.60;99.90
22436;DHT22;11385;50.822;4.324;2023-02-19T06:50:39;10.60;99.90
22436;DHT22;11385;50.822;4.324;2023-02-19T06:53:05;10.70;99.90
22436;DHT22;11385;50.822;4.324;2023-02-19T06:55:33;10.60;99.90
22436;DHT22;11385;50.822;4.324;2023-02-19T06:58:00;10.50;99.90
22436;DHT22;11385;50.822;4.324;2023-02-19T07:00:27;10.50;99.90
22436;DHT22;11385;50.822;4.324;2023-02-19T07:02:53;10.40;99.90
22436;DHT22;11385;50.822;4.324;2023-02-19T07:05:22;10.50;99.90
22436;DHT22;11385;50.822;4.324;2023-02-19T07:07:49;10.50;99.90
22436;DHT22;11385;50.822;4.324;2023-02-19T07:10:16;10.60;99.90
22436;DHT22;11385;50.822;4.324;2023-02-19T07:12:43;10.50;99.90
22436;DHT22;11385;50.822;4.324;2023-02-19T07:15:10;10.60;99.90
22436;DHT22;11385;50.822;4.324;2023-02-19T07:17:37;10.50;99.90
22436;DHT22;11385;50.822;4.324;2023-02-19T07:20:03;10.50;99.90
22436;DHT22;11385;50.822;4.324;2023-02-19T07:22:30;10.50;99.90
22436;DHT22;11385;50.822;4.324;2023-02-19T07:24:57;10.40;99.90
22436;DHT22;11385;50.822;4.324;2023-02-19T07:27:23;10.60;99.90
22436;DHT22;11385;50.822;4.324;2023-02-19T07:29:50;10.50;99.90
22436;DHT22;11385;50.822;4.324;2023-02-19T07:32:16;10.50;99.90
22436;DHT22;11385;50.822;4.324;2023-02-19T07:34:43;10.50;99.90
22436;DHT22;11385;50.822;4.324;2023-02-19T07:37:10;10.30;99.90
22436;DHT22;11385;50.822;4.324;2023-02-19T07:39:36;10.40;99.90
22436;DHT22;11385;50.822;4.324;2023-02-19T07:42:03;10.40;99.90
22436;DHT22;11385;50.822;4.324;2023-02-19T07:44:30;10.50;99.90
22436;DHT22;11385;50.822;4.324;2023-02-19T07:46:56;10.40;99.90
22436;DHT22;11385;50.822;4.324;2023-02-19T07:49:23;10.40;99.90
22436;DHT22;11385;50.822;4.324;2023-02-19T07:51:49;10.60;99.90
22436;DHT22;11385;50.822;4.324;2023-02-19T07:54:16;10.70;99.90
22436;DHT22;11385;50.822;4.324;2023-02-19T07:56:42;10.60;99.90
22436;DHT22;11385;50.822;4.324;2023-02-19T07:59:09;10.50;99.90
22436;DHT22;11385;50.822;4.324;2023-02-19T08:01:36;10.50;99.90
22436;DHT22;11385;50.822;4.324;2023-02-19T08:04:11;10.60;99.90
22436;DHT22;11385;50.822;4.324;2023-02-19T08:06:38;10.50;99.90
22436;DHT22;11385;50.822;4.324;2023-02-19T08:09:05;10.50;99.90
22436;DHT22;11385;50.822;4.324;2023-02-19T08:11:32;10.50;99.90
22436;DHT22;11385;50.822;4.324;2023-02-19T08:14:04;10.60;99.90
22436;DHT22;11385;50.822;4.324;2023-02-19T08:16:31;10.50;99.90
22436;DHT22;11385;50.822;4.324;2023-02-19T08:18:58;10.50;99.90
22436;DHT22;11385;50.822;4.324;2023-02-19T08:21:25;10.70;99.90
22436;DHT22;11385;50.822;4.324;2023-02-19T08:23:52;10.70;99.90
22436;DHT22;11385;50.822;4.324;2023-02-19T08:26:18;10.60;99.90
22436;DHT22;11385;50.822;4.324;2023-02-19T08:28:45;10.50;99.90
22436;DHT22;11385;50.822;4.324;2023-02-19T08:31:13;10.50;99.90
22436;DHT22;11385;50.822;4.324;2023-02-19T08:33:40;10.50;99.90
22436;DHT22;11385;50.822;4.324;2023-02-19T08:36:09;10.50;99.90
22436;DHT22;11385;50.822;4.324;2023-02-19T08:38:36;10.50;99.90
22436;DHT22;11385;50.822;4.324;2023-02-19T08:41:05;10.50;99.90
22436;DHT22;11385;50.822;4.324;2023-02-19T08:43:32;10.50;99.90
22436;DHT22;11385;50.822;4.324;2023-02-19T08:46:00;10.70;99.90
22436;DHT22;11385;50.822;4.324;2023-02-19T08:48:27;10.70;99.90
22436;DHT22;11385;50.822;4.324;2023-02-19T08:50:57;10.70;99.90
22436;DHT22;11385;50.822;4.324;2023-02-19T08:53:24;10.70;99.90
22436;DHT22;11385;50.822;4.324;2023-02-19T08:55:51;10.80;99.90
22436;DHT22;11385;50.822;4.324;2023-02-19T08:58:18;10.80;99.90
22436;DHT22;11385;50.822;4.324;2023-02-19T09:00:45;11.00;99.90
22436;DHT22;11385;50.822;4.324;2023-02-19T09:03:12;11.00;99.90
22436;DHT22;11385;50.822;4.324;2023-02-19T09:05:39;11.10;99.90
22436;DHT22;11385;50.822;4.324;2023-02-19T09:08:06;10.80;99.90
22436;DHT22;11385;50.822;4.324;2023-02-19T09:10:32;10.60;99.90
22436;DHT22;11385;50.822;4.324;2023-02-19T09:12:59;10.60;99.90
22436;DHT22;11385;50.822;4.324;2023-02-19T09:15:27;10.70;99.90
22436;DHT22;11385;50.822;4.324;2023-02-19T09:17:55;10.50;99.90
22436;DHT22;11385;50.822;4.324;2023-02-19T09:20:21;10.40;99.90
22436;DHT22;11385;50.822;4.324;2023-02-19T09:22:48;10.40;99.90
22436;DHT22;11385;50.822;4.324;2023-02-19T09:25:15;10.50;99.90
22436;DHT22;11385;50.822;4.324;2023-02-19T09:27:41;10.70;99.90
22436;DHT22;11385;50.822;4.324;2023-02-19T09:30:08;10.70;99.90
22436;DHT22;11385;50.822;4.324;2023-02-19T09:32:35;10.60;99.90
22436;DHT22;11385;50.822;4.324;2023-02-19T09:35:01;10.60;99.90
22436;DHT22;11385;50.822;4.324;2023-02-19T09:37:28;10.50;99.90
22436;DHT22;11385;50.822;4.324;2023-02-19T09:39:55;10.60;99.90
22436;DHT22;11385;50.822;4.324;2023-02-19T09:42:26;10.70;99.90
22436;DHT22;11385;50.822;4.324;2023-02-19T09:44:57;10.80;99.90
22436;DHT22;11385;50.822;4.324;2023-02-19T09:47:27;10.90;99.90
22436;DHT22;11385;50.822;4.324;2023-02-19T09:49:58;11.00;99.90
22436;DHT22;11385;50.822;4.324;2023-02-19T09:52:35;11.10;99.90
22436;DHT22;11385;50.822;4.324;2023-02-19T09:55:08;11.30;99.90
22436;DHT22;11385;50.822;4.324;2023-02-19T09:57:32;11.20;99.90
22436;DHT22;11385;50.822;4.324;2023-02-19T10:00:06;11.20;99.90
22436;DHT22;11385;50.822;4.324;2023-02-19T10:02:34;11.20;99.90
22436;DHT22;11385;50.822;4.324;2023-02-19T10:05:02;11.30;99.90
22436;DHT22;11385;50.822;4.324;2023-02-19T10:07:50;11.30;99.90
22436;DHT22;11385;50.822;4.324;2023-02-19T10:10:34;11.30;99.90
22436;DHT22;11385;50.822;4.324;2023-02-19T10:13:21;11.10;99.90
22436;DHT22;11385;50.822;4.324;2023-02-19T10:15:53;11.00;99.90
22436;DHT22;11385;50.822;4.324;2023-02-19T10:18:24;11.00;99.90
22436;DHT22;11385;50.822;4.324;2023-02-19T10:20:54;10.90;99.90
22436;DHT22;11385;50.822;4.324;2023-02-19T10:23:23;11.00;99.90
22436;DHT22;11385;50.822;4.324;2023-02-19T10:25:55;11.10;99.90
22436;DHT22;11385;50.822;4.324;2023-02-19T10:28:28;11.30;99.90
22436;DHT22;11385;50.822;4.324;2023-02-19T10:30:57;11.50;99.90
22436;DHT22;11385;50.822;4.324;2023-02-19T10:33:25;11.50;99.90
22436;DHT22;11385;50.822;4.324;2023-02-19T10:36:14;11.30;99.90
22436;DHT22;11385;50.822;4.324;2023-02-19T10:38:39;11.30;99.90
22436;DHT22;11385;50.822;4.324;2023-02-19T10:41:16;11.30;99.90
22436;DHT22;11385;50.822;4.324;2023-02-19T10:44:12;11.20;99.90
22436;DHT22;11385;50.822;4.324;2023-02-19T10:46:42;11.30;99.90
22436;DHT22;11385;50.822;4.324;2023-02-19T10:49:21;11.40;99.90
22436;DHT22;11385;50.822;4.324;2023-02-19T10:51:46;11.30;99.90
22436;DHT22;11385;50.822;4.324;2023-02-19T10:54:19;11.30;99.90
22436;DHT22;11385;50.822;4.324;2023-02-19T10:56:46;11.30;99.90
22436;DHT22;11385;50.822;4.324;2023-02-19T10:59:23;11.20;99.90
22436;DHT22;11385;50.822;4.324;2023-02-19T11:01:57;11.30;99.90
22436;DHT22;11385;50.822;4.324;2023-02-19T11:04:27;11.30;99.90
22436;DHT22;11385;50.822;4.324;2023-02-19T11:06:56;11.40;99.90
22436;DHT22;11385;50.822;4.324;2023-02-19T11:09:27;11.30;99.90
22436;DHT22;11385;50.822;4.324;2023-02-19T11:11:55;11.30;99.90
22436;DHT22;11385;50.822;4.324;2023-02-19T11:14:24;11.40;99.90
22436;DHT22;11385;50.822;4.324;2023-02-19T11:16:54;11.60;99.90
22436;DHT22;11385;50.822;4.324;2023-02-19T11:19:30;11.60;99.90
22436;DHT22;11385;50.822;4.324;2023-02-19T11:21:59;11.40;99.90
22436;DHT22;11385;50.822;4.324;2023-02-19T11:24:32;11.50;99.90
22436;DHT22;11385;50.822;4.324;2023-02-19T11:27:03;11.50;99.90
22436;DHT22;11385;50.822;4.324;2023-02-19T11:29:31;11.60;99.90
22436;DHT22;11385;50.822;4.324;2023-02-19T11:34:38;11.70;99.90
22436;DHT22;11385;50.822;4.324;2023-02-19T11:37:11;11.80;99.90
22436;DHT22;11385;50.822;4.324;2023-02-19T11:39:43;11.80;99.90
22436;DHT22;11385;50.822;4.324;2023-02-19T11:42:20;11.70;99.90
22436;DHT22;11385;50.822;4.324;2023-02-19T11:45:10;11.90;99.90
22436;DHT22;11385;50.822;4.324;2023-02-19T11:53:25;11.70;99.90
22436;DHT22;11385;50.822;4.324;2023-02-19T11:56:19;11.70;99.90
22436;DHT22;11385;50.822;4.324;2023-02-19T11:58:54;11.70;99.90
22436;DHT22;11385;50.822;4.324;2023-02-19T12:04:40;11.50;99.90
22436;DHT22;11385;50.822;4.324;2023-02-19T12:07:17;11.30;99.90
22436;DHT22;11385;50.822;4.324;2023-02-19T12:10:02;11.30;99.90
22436;DHT22;11385;50.822;4.324;2023-02-19T12:12:40;11.30;99.90
22436;DHT22;11385;50.822;4.324;2023-02-19T12:15:28;11.30;99.90
22436;DHT22;11385;50.822;4.324;2023-02-19T12:20:42;11.20;99.90
22436;DHT22;11385;50.822;4.324;2023-02-19T12:23:22;11.30;99.90
22436;DHT22;11385;50.822;4.324;2023-02-19T12:25:56;11.30;99.90
22436;DHT22;11385;50.822;4.324;2023-02-19T12:28:36;11.20;99.90
22436;DHT22;11385;50.822;4.324;2023-02-19T12:31:19;11.10;99.90
22436;DHT22;11385;50.822;4.324;2023-02-19T12:33:50;11.00;99.90
22436;DHT22;11385;50.822;4.324;2023-02-19T12:36:25;11.00;99.90
22436;DHT22;11385;50.822;4.324;2023-02-19T12:39:04;11.00;99.90
22436;DHT22;11385;50.822;4.324;2023-02-19T12:41:53;10.90;99.90
22436;DHT22;11385;50.822;4.324;2023-02-19T12:44:23;10.90;99.90
22436;DHT22;11385;50.822;4.324;2023-02-19T12:46:55;10.90;99.90
22436;DHT22;11385;50.822;4.324;2023-02-19T12:49:36;11.00;99.90
22436;DHT22;11385;50.822;4.324;2023-02-19T12:52:09;11.20;99.90
22436;DHT22;11385;50.822;4.324;2023-02-19T12:54:41;11.20;99.90
22436;DHT22;11385;50.822;4.324;2023-02-19T12:57:20;11.30;99.90
22436;DHT22;11385;50.822;4.324;2023-02-19T12:59:52;11.20;99.90
22436;DHT22;11385;50.822;4.324;2023-02-19T13:02:58;11.10;99.90
22436;DHT22;11385;50.822;4.324;2023-02-19T13:08:01;11.00;99.90
22436;DHT22;11385;50.822;4.324;2023-02-19T13:10:33;11.00;99.90
22436;DHT22;11385;50.822;4.324;2023-02-19T13:13:04;11.10;99.90
22436;DHT22;11385;50.822;4.324;2023-02-19T13:15:49;11.20;99.90
22436;DHT22;11385;50.822;4.324;2023-02-19T13:18:23;11.10;99.90
22436;DHT22;11385;50.822;4.324;2023-02-19T13:20:50;10.90;99.90
22436;DHT22;11385;50.822;4.324;2023-02-19T13:23:28;11.00;99.90
22436;DHT22;11385;50.822;4.324;2023-02-19T13:26:56;11.10;99.90
22436;DHT22;11385;50.822;4.324;2023-02-19T13:29:16;10.90;99.90
22436;DHT22;11385;50.822;4.324;2023-02-19T13:32:08;10.90;99.90
22436;DHT22;11385;50.822;4.324;2023-02-19T13:35:01;10.80;99.90
22436;DHT22;11385;50.822;4.324;2023-02-19T13:37:32;10.80;99.90
22436;DHT22;11385;50.822;4.324;2023-02-19T13:40:03;10.90;99.90
22436;DHT22;11385;50.822;4.324;2023-02-19T13:42:35;10.90;99.90
22436;DHT22;11385;50.822;4.324;2023-02-19T13:45:03;10.80;99.90
22436;DHT22;11385;50.822;4.324;2023-02-19T13:50:16;10.70;99.90
22436;DHT22;11385;50.822;4.324;2023-02-19T13:52:39;10.70;99.90
22436;DHT22;11385;50.822;4.324;2023-02-19T13:57:47;10.70;99.90
22436;DHT22;11385;50.822;4.324;2023-02-19T14:00:48;10.60;99.90
22436;DHT22;11385;50.822;4.324;2023-02-19T14:03:26;10.60;99.90
22436;DHT22;11385;50.822;4.324;2023-02-19T14:05:59;10.60;99.90
22436;DHT22;11385;50.822;4.324;2023-02-19T14:11:05;10.70;99.90
22436;DHT22;11385;50.822;4.324;2023-02-19T14:19:15;10.80;99.90
22436;DHT22;11385;50.822;4.324;2023-02-19T14:21:43;10.70;99.90
22436;DHT22;11385;50.822;4.324;2023-02-19T14:24:13;10.80;99.90
22436;DHT22;11385;50.822;4.324;2023-02-19T14:26:40;10.80;99.90
22436;DHT22;11385;50.822;4.324;2023-02-19T14:29:10;10.70;99.90
22436;DHT22;11385;50.822;4.324;2023-02-19T14:31:37;10.70;99.90
22436;DHT22;11385;50.822;4.324;2023-02-19T14:34:14;10.60;99.90
22436;DHT22;11385;50.822;4.324;2023-02-19T14:36:47;10.60;99.90
22436;DHT22;11385;50.822;4.324;2023-02-19T14:39:20;10.60;99.90
22436;DHT22;11385;50.822;4.324;2023-02-19T14:41:50;10.60;99.90
22436;DHT22;11385;50.822;4.324;2023-02-19T14:44:21;10.80;99.90
22436;DHT22;11385;50.822;4.324;2023-02-19T14:47:07;10.60;99.90
22436;DHT22;11385;50.822;4.324;2023-02-19T14:49:44;10.50;99.90
22436;DHT22;11385;50.822;4.324;2023-02-19T14:52:19;10.50;99.90
22436;DHT22;11385;50.822;4.324;2023-02-19T14:54:55;10.60;99.90
22436;DHT22;11385;50.822;4.324;2023-02-19T14:57:28;10.60;99.90
22436;DHT22;11385;50.822;4.324;2023-02-19T14:59:58;10.50;99.90
22436;DHT22;11385;50.822;4.324;2023-02-19T15:02:27;10.60;99.90
22436;DHT22;11385;50.822;4.324;2023-02-19T15:04:55;10.60;99.90
22436;DHT22;11385;50.822;4.324;2023-02-19T15:07:27;10.60;99.90
22436;DHT22;11385;50.822;4.324;2023-02-19T15:09:58;10.50;99.90
22436;DHT22;11385;50.822;4.324;2023-02-19T15:12:32;10.70;99.90
22436;DHT22;11385;50.822;4.324;2023-02-19T15:15:01;10.70;99.90
22436;DHT22;11385;50.822;4.324;2023-02-19T15:17:31;10.80;99.90
22436;DHT22;11385;50.822;4.324;2023-02-19T15:20:02;10.80;99.90
22436;DHT22;11385;50.822;4.324;2023-02-19T15:22:30;10.80;99.90
22436;DHT22;11385;50.822;4.324;2023-02-19T15:25:02;10.90;99.90
22436;DHT22;11385;50.822;4.324;2023-02-19T15:27:29;10.80;99.90
22436;DHT22;11385;50.822;4.324;2023-02-19T15:29:55;10.70;99.90
22436;DHT22;11385;50.822;4.324;2023-02-19T15:32:24;10.50;99.90
22436;DHT22;11385;50.822;4.324;2023-02-19T15:35:00;10.50;99.90
22436;DHT22;11385;50.822;4.324;2023-02-19T15:37:30;10.30;99.90
22436;DHT22;11385;50.822;4.324;2023-02-19T15:39:59;10.10;99.90
22436;DHT22;11385;50.822;4.324;2023-02-19T15:42:30;10.00;99.90
22436;DHT22;11385;50.822;4.324;2023-02-19T15:45:03;10.00;99.90
22436;DHT22;11385;50.822;4.324;2023-02-19T15:47:43;10.10;99.90
22436;DHT22;11385;50.822;4.324;2023-02-19T15:50:16;10.10;99.90
22436;DHT22;11385;50.822;4.324;2023-02-19T15:52:54;10.10;99.90
22436;DHT22;11385;50.822;4.324;2023-02-19T15:55:28;10.20;99.90
22436;DHT22;11385;50.822;4.324;2023-02-19T15:58:17;10.30;99.90
22436;DHT22;11385;50.822;4.324;2023-02-19T16:00:50;10.50;99.90
22436;DHT22;11385;50.822;4.324;2023-02-19T16:03:21;10.50;99.90
22436;DHT22;11385;50.822;4.324;2023-02-19T16:06:05;10.30;99.90
22436;DHT22;11385;50.822;4.324;2023-02-19T16:08:36;10.10;99.90
22436;DHT22;11385;50.822;4.324;2023-02-19T16:11:23;10.10;99.90
22436;DHT22;11385;50.822;4.324;2023-02-19T16:13:34;10.20;99.90
22436;DHT22;11385;50.822;4.324;2023-02-19T16:16:11;10.00;99.90
22436;DHT22;11385;50.822;4.324;2023-02-19T16:18:34;10.00;99.90
22436;DHT22;11385;50.822;4.324;2023-02-19T16:21:06;10.00;99.90
22436;DHT22;11385;50.822;4.324;2023-02-19T16:23:32;9.80;99.90
22436;DHT22;11385;50.822;4.324;2023-02-19T16:31:46;9.80;99.90
22436;DHT22;11385;50.822;4.324;2023-02-19T16:34:22;9.80;99.90
22436;DHT22;11385;50.822;4.324;2023-02-19T16:36:45;9.80;99.90
22436;DHT22;11385;50.822;4.324;2023-02-19T16:39:16;9.90;99.90
22436;DHT22;11385;50.822;4.324;2023-02-19T16:42:09;10.00;99.90